Time;durP1;ratioP1;P1;durP2;ratioP2;P2;SDS_P1;SDS_P2;PMS_P1;PMS_P2;Temp;Humidity;BMP_temperature;BMP_pressure;BME280_temperature;BME280_humidity;BME280_pressure;Samples;Min_cycle;Max_cycle;Signal;HPM_P1;HPM_P2
2022/08/04 14:03:57;;;;;;;2.42;2.30;;;39.20;37.60;;;;;;5091792;27;20439;-66
2022/08/04 14:06:25;;;;;;;2.80;2.40;;;39.00;38.00;;;;;;5091537;28;20634;-66
2022/08/04 14:08:54;;;;;;;3.40;3.10;;;38.90;37.70;;;;;;5091420;28;20453;-66
2022/08/04 14:11:30;;;;;;;2.70;2.30;;;38.90;37.80;;;;;;5091205;28;20476;-68
2022/08/04 14:13:57;;;;;;;5.40;2.60;;;39.00;38.60;;;;;;5091470;28;20464;-69
2022/08/04 14:16:24;;;;;;;2.40;2.30;;;39.20;38.00;;;;;;5091543;28;20445;-69
2022/08/04 14:18:58;;;;;;;3.93;2.40;;;39.40;39.00;;;;;;5091383;28;20958;-69
2022/08/04 14:21:25;;;;;;;2.60;2.40;;;39.50;38.40;;;;;;5091185;28;20472;-69
2022/08/04 14:23:54;;;;;;;2.33;2.23;;;39.60;38.10;;;;;;5091090;28;20449;-70
2022/08/04 14:26:26;;;;;;;2.07;1.97;;;39.60;38.70;;;;;;5091135;28;20457;-68
2022/08/04 14:28:57;;;;;;;2.87;2.77;;;39.50;37.80;;;;;;5090979;28;20448;-69
2022/08/04 14:31:25;;;;;;;2.23;2.13;;;39.60;37.60;;;;;;5091225;28;20473;-68
2022/08/04 14:33:53;;;;;;;2.93;2.60;;;39.70;38.90;;;;;;5091087;28;20453;-67
2022/08/04 14:36:22;;;;;;;5.30;3.50;;;39.80;38.30;;;;;;5090913;28;20479;-68
2022/08/04 14:38:54;;;;;;;3.00;2.50;;;39.90;38.30;;;;;;5090796;28;20455;-68
2022/08/04 14:41:23;;;;;;;2.60;2.40;;;40.00;37.80;;;;;;5090629;28;20495;-67
2022/08/04 14:43:52;;;;;;;4.13;2.47;;;40.10;38.00;;;;;;5090525;28;20477;-68
2022/08/04 14:46:20;;;;;;;2.87;2.50;;;40.20;38.90;;;;;;5090543;28;20540;-69
2022/08/04 14:49:05;;;;;;;2.77;2.57;;;40.30;38.20;;;;;;5090641;28;20476;-68
2022/08/04 14:51:39;;;;;;;2.67;2.50;;;40.40;37.80;;;;;;5090559;28;20475;-69
2022/08/04 14:54:08;;;;;;;2.37;2.27;;;40.50;37.60;;;;;;5090715;28;20437;-68
2022/08/04 14:56:35;;;;;;;3.60;2.70;;;40.50;37.80;;;;;;5090531;28;20433;-69
2022/08/04 14:59:05;;;;;;;2.47;2.17;;;40.50;37.60;;;;;;5090333;28;20440;-69
2022/08/04 15:01:32;;;;;;;2.90;2.70;;;40.40;37.40;;;;;;5089959;28;21000;-70
2022/08/04 15:04:02;;;;;;;2.30;2.20;;;40.30;36.80;;;;;;5090465;28;20433;-69
2022/08/04 15:06:30;;;;;;;2.67;2.57;;;40.20;37.80;;;;;;5090706;28;20455;-68
2022/08/04 15:09:01;;;;;;;2.90;2.43;;;40.00;36.70;;;;;;5090262;28;20475;-68
2022/08/04 15:11:29;;;;;;;2.43;2.33;;;39.80;37.10;;;;;;5090381;28;20833;-68
2022/08/04 15:13:57;;;;;;;2.70;2.40;;;39.70;37.60;;;;;;5083454;28;20519;-68
2022/08/04 15:16:27;;;;;;;2.47;2.37;;;39.70;37.70;;;;;;5077053;28;20481;-68
2022/08/04 15:18:54;;;;;;;3.00;2.80;;;39.70;37.50;;;;;;5076986;28;20460;-68
2022/08/04 15:21:22;;;;;;;2.47;2.37;;;39.70;37.70;;;;;;5077067;28;20473;-68
2022/08/04 15:23:49;;;;;;;2.53;2.30;;;39.60;37.00;;;;;;5077144;28;20469;-69
2022/08/04 15:26:23;;;;;;;2.93;2.73;;;39.50;37.70;;;;;;5077008;28;20536;-69
2022/08/04 15:28:54;;;;;;;2.93;2.73;;;39.50;37.90;;;;;;5076573;28;20430;-67
2022/08/04 15:31:24;;;;;;;3.97;2.80;;;39.50;38.70;;;;;;5076596;28;20474;-67
2022/08/04 15:33:51;;;;;;;2.73;2.63;;;39.60;38.00;;;;;;5076145;28;20461;-67
2022/08/04 15:36:25;;;;;;;2.60;2.40;;;39.60;37.90;;;;;;5076958;28;20449;-68
2022/08/04 15:39:00;;;;;;;2.67;2.57;;;39.60;37.80;;;;;;5076954;28;20499;-67
2022/08/04 15:41:36;;;;;;;2.77;2.57;;;39.60;37.90;;;;;;5076006;28;20511;-67
2022/08/04 15:44:48;;;;;;;2.90;2.10;;;39.60;37.70;;;;;;5076324;28;20849;-68
2022/08/04 15:47:16;;;;;;;3.77;2.73;;;39.30;37.60;;;;;;5034280;28;20477;-69
2022/08/04 15:49:43;;;;;;;2.43;2.23;;;39.20;38.50;;;;;;5088910;28;20447;-69
2022/08/04 15:52:12;;;;;;;2.43;2.33;;;39.10;38.20;;;;;;5097311;28;20438;-69
2022/08/04 15:54:39;;;;;;;3.90;2.73;;;39.10;38.60;;;;;;5096530;28;20446;-70
2022/08/04 15:57:09;;;;;;;3.33;2.37;;;39.10;38.60;;;;;;5095380;28;20445;-69
2022/08/04 15:59:58;;;;;;;3.43;2.80;;;38.90;38.00;;;;;;5078664;28;20453;-69
2022/08/04 16:02:49;;;;;;;4.03;2.37;;;38.90;39.00;;;;;;5075779;28;20478;-68
2022/08/04 16:05:46;;;;;;;2.70;2.50;;;38.90;39.00;;;;;;5078609;28;20426;-69
2022/08/04 16:08:14;;;;;;;3.40;2.30;;;38.80;38.70;;;;;;5077206;28;20541;-70
2022/08/04 16:10:47;;;;;;;2.40;2.30;;;38.80;39.10;;;;;;5075651;28;20474;-69
2022/08/04 16:13:18;;;;;;;2.50;2.40;;;38.80;38.80;;;;;;5077174;28;20441;-69
2022/08/04 16:15:52;;;;;;;2.67;2.47;;;38.70;39.10;;;;;;5075299;28;20984;-70
2022/08/04 16:18:38;;;;;;;2.93;2.73;;;38.50;38.60;;;;;;5075522;28;20429;-70
2022/08/04 16:21:06;;;;;;;2.80;2.60;;;38.50;39.40;;;;;;5075614;28;20480;-69
2022/08/04 16:23:50;;;;;;;2.47;2.27;;;38.40;39.30;;;;;;5077935;28;20474;-70
2022/08/04 16:26:43;;;;;;;2.30;2.20;;;38.30;38.70;;;;;;5088541;28;20434;-70
2022/08/04 16:29:28;;;;;;;5.13;2.60;;;38.30;39.40;;;;;;5090223;28;20460;-69
2022/08/04 16:32:09;;;;;;;3.07;2.87;;;38.20;39.10;;;;;;5086304;28;20466;-70
2022/08/04 16:34:38;;;;;;;5.87;2.67;;;38.10;39.60;;;;;;5076181;28;20485;-70
2022/08/04 16:37:06;;;;;;;2.77;2.57;;;38.00;40.00;;;;;;5075144;28;20515;-69
2022/08/04 16:39:33;;;;;;;4.23;2.33;;;37.80;39.50;;;;;;5074725;28;21020;-69
2022/08/04 16:42:00;;;;;;;2.70;2.60;;;37.70;40.20;;;;;;5075012;28;20476;-70
2022/08/04 16:44:33;;;;;;;2.80;2.70;;;37.60;40.60;;;;;;5074977;28;20476;-70
2022/08/04 16:47:00;;;;;;;2.53;2.40;;;37.50;40.60;;;;;;5074878;28;20450;-70
2022/08/04 16:49:28;;;;;;;2.73;2.63;;;37.50;41.30;;;;;;5074782;28;20454;-70
2022/08/04 16:52:00;;;;;;;2.77;2.67;;;37.50;41.10;;;;;;5074698;28;20477;-70
2022/08/04 16:54:29;;;;;;;3.10;2.67;;;37.50;40.60;;;;;;5074778;28;20437;-70
2022/08/04 16:56:56;;;;;;;4.03;2.87;;;37.40;40.10;;;;;;5074755;28;20456;-70
2022/08/04 16:59:23;;;;;;;3.63;3.17;;;37.30;40.30;;;;;;5077115;28;20476;-70
2022/08/04 17:01:53;;;;;;;6.27;3.10;;;37.20;40.40;;;;;;5087583;28;20845;-70
2022/08/04 17:04:28;;;;;;;3.53;2.70;;;37.20;40.10;;;;;;5089418;28;20466;-70
2022/08/04 17:06:59;;;;;;;4.30;2.70;;;37.00;40.20;;;;;;5088296;28;20455;-69
2022/08/04 17:09:26;;;;;;;6.60;3.23;;;36.90;40.40;;;;;;5080402;28;20438;-70
2022/08/04 17:11:53;;;;;;;2.93;2.73;;;36.80;40.50;;;;;;5074598;28;20480;-69
2022/08/04 17:14:22;;;;;;;3.37;2.33;;;36.70;40.60;;;;;;5074610;28;20450;-67
2022/08/04 17:16:49;;;;;;;2.97;2.80;;;36.70;40.50;;;;;;5074848;28;20488;-70
2022/08/04 17:19:17;;;;;;;2.73;2.63;;;36.60;40.50;;;;;;5074021;28;20955;-67
2022/08/04 17:21:45;;;;;;;6.77;3.00;;;36.60;40.70;;;;;;5074103;28;20470;-67
2022/08/04 17:24:12;;;;;;;4.33;2.60;;;36.50;41.30;;;;;;5074450;28;20607;-70
2022/08/04 17:26:40;;;;;;;4.93;4.50;;;36.50;41.30;;;;;;5074307;28;20454;-70
2022/08/04 17:29:07;;;;;;;4.90;4.40;;;36.40;41.30;;;;;;5074452;28;20449;-69
2022/08/04 17:31:37;;;;;;;3.50;3.30;;;36.40;41.60;;;;;;5074241;28;20526;-69
2022/08/04 17:34:10;;;;;;;2.80;2.70;;;36.30;42.50;;;;;;5073934;28;20952;-70
2022/08/04 17:36:39;;;;;;;3.00;2.63;;;36.30;43.20;;;;;;5074160;28;20525;-69
2022/08/04 17:39:12;;;;;;;4.93;2.57;;;36.20;41.40;;;;;;5074022;28;20516;-69
2022/08/04 17:41:40;;;;;;;3.23;2.93;;;36.10;42.80;;;;;;5074085;28;20561;-69
2022/08/04 17:44:07;;;;;;;3.00;2.80;;;36.00;42.30;;;;;;5073828;28;20480;-69
2022/08/04 17:46:39;;;;;;;3.10;2.63;;;35.90;42.80;;;;;;5074090;28;20485;-71
2022/08/04 17:49:09;;;;;;;3.00;2.80;;;35.90;43.00;;;;;;5073926;28;20494;-69
2022/08/04 17:51:41;;;;;;;3.67;2.80;;;35.80;43.00;;;;;;5073439;28;20480;-69
2022/08/04 17:54:09;;;;;;;2.80;2.60;;;35.70;43.80;;;;;;5073886;28;20831;-69
2022/08/04 17:56:39;;;;;;;4.97;2.87;;;35.60;45.40;;;;;;5073839;28;20792;-70
2022/08/04 17:59:18;;;;;;;2.80;2.63;;;35.50;46.60;;;;;;5073784;28;20460;-70
2022/08/04 18:01:55;;;;;;;5.77;2.67;;;35.40;46.70;;;;;;5074579;28;20477;-71
2022/08/04 18:04:35;;;;;;;5.67;2.90;;;35.30;46.50;;;;;;5074187;28;20810;-69
2022/08/04 18:07:06;;;;;;;4.67;4.20;;;35.20;47.70;;;;;;5073737;28;20444;-69
2022/08/04 18:09:35;;;;;;;3.43;3.13;;;35.10;47.10;;;;;;5073704;28;20449;-69
2022/08/04 18:12:04;;;;;;;9.10;6.50;;;34.90;48.50;;;;;;5073782;28;20830;-71
2022/08/04 18:14:45;;;;;;;7.70;7.00;;;34.80;49.30;;;;;;5073180;28;21013;-69
2022/08/04 18:17:13;;;;;;;5.03;3.13;;;34.80;49.90;;;;;;5073714;28;20437;-69
2022/08/04 18:19:50;;;;;;;3.90;2.73;;;34.60;49.60;;;;;;5073216;28;20953;-69
2022/08/04 18:22:19;;;;;;;6.50;3.03;;;34.60;48.80;;;;;;5073512;28;20519;-70
2022/08/04 18:24:46;;;;;;;4.70;2.97;;;34.40;48.90;;;;;;5073492;28;20473;-70
2022/08/04 18:27:13;;;;;;;3.57;3.27;;;34.30;49.80;;;;;;5073488;28;20450;-69
2022/08/04 18:29:40;;;;;;;5.00;2.80;;;34.20;50.10;;;;;;5073371;28;20941;-71
2022/08/04 18:32:07;;;;;;;3.40;3.10;;;34.10;49.00;;;;;;5074055;28;20474;-71
2022/08/04 18:34:34;;;;;;;3.30;3.00;;;34.00;49.40;;;;;;5074404;28;20967;-71
2022/08/04 18:37:01;;;;;;;5.13;4.20;;;33.80;50.70;;;;;;5073660;28;20511;-72
2022/08/04 18:39:29;;;;;;;4.47;4.07;;;33.70;51.20;;;;;;5073948;28;20449;-71
2022/08/04 18:41:56;;;;;;;8.57;7.70;;;33.50;51.70;;;;;;5073521;28;20470;-71
2022/08/04 18:44:25;;;;;;;9.73;8.80;;;33.40;52.10;;;;;;5073518;28;20480;-70
2022/08/04 18:46:52;;;;;;;6.07;5.47;;;33.20;52.10;;;;;;5074109;28;20450;-70
2022/08/04 18:49:19;;;;;;;4.27;3.97;;;33.10;52.60;;;;;;5075222;28;20507;-71
2022/08/04 18:51:46;;;;;;;5.97;4.13;;;32.90;51.20;;;;;;5077349;28;20469;-69
2022/08/04 18:54:12;;;;;;;3.30;3.00;;;32.90;51.60;;;;;;5082139;28;20446;-71
2022/08/04 18:56:40;;;;;;;5.17;3.50;;;32.70;51.50;;;;;;5090960;28;20467;-71
2022/08/04 18:59:07;;;;;;;2.73;2.53;;;32.70;52.10;;;;;;5092613;28;20792;-71
2022/08/04 19:01:34;;;;;;;3.20;3.00;;;32.60;51.50;;;;;;5090277;28;20478;-71
2022/08/04 19:04:02;;;;;;;3.83;3.00;;;32.50;51.90;;;;;;5077335;28;20469;-70
2022/08/04 19:06:29;;;;;;;4.47;3.10;;;32.40;52.60;;;;;;5076561;28;20937;-71
2022/08/04 19:08:56;;;;;;;2.97;2.67;;;32.30;52.70;;;;;;5076885;28;20511;-71
2022/08/04 19:11:23;;;;;;;3.20;2.97;;;32.20;52.90;;;;;;5076489;28;20984;-70
2022/08/04 19:13:51;;;;;;;3.70;3.40;;;32.10;53.20;;;;;;5076924;28;20437;-70
2022/08/04 19:16:18;;;;;;;5.13;4.10;;;31.90;53.60;;;;;;5077069;28;20461;-70
2022/08/04 19:18:45;;;;;;;3.63;3.43;;;31.80;54.00;;;;;;5076880;28;20457;-71
2022/08/04 19:21:12;;;;;;;3.73;3.50;;;31.70;54.00;;;;;;5076563;28;20473;-70
2022/08/04 19:23:39;;;;;;;4.63;4.17;;;31.50;54.20;;;;;;5076271;28;20520;-70
2022/08/04 19:26:05;;;;;;;4.03;3.73;;;31.50;54.60;;;;;;5076576;28;20453;-71
2022/08/04 19:28:34;;;;;;;4.20;3.80;;;31.30;54.80;;;;;;5076626;28;20833;-71
2022/08/04 19:31:03;;;;;;;3.90;3.60;;;31.20;54.90;;;;;;5076286;28;20972;-71
2022/08/04 19:33:30;;;;;;;4.37;3.80;;;31.10;54.70;;;;;;5076884;28;20446;-71
2022/08/04 19:35:57;;;;;;;4.67;4.27;;;31.10;54.70;;;;;;5078177;28;20450;-70
2022/08/04 19:38:24;;;;;;;3.50;3.20;;;31.00;53.20;;;;;;5083565;28;20503;-70
2022/08/04 19:40:50;;;;;;;4.27;3.80;;;30.90;52.60;;;;;;5082549;28;20478;-70
2022/08/04 19:43:18;;;;;;;4.50;4.10;;;30.90;53.00;;;;;;5081047;28;20458;-70
2022/08/04 19:45:45;;;;;;;4.03;3.60;;;30.90;53.30;;;;;;5081211;28;20450;-70
2022/08/04 19:48:13;;;;;;;5.97;3.53;;;30.90;53.30;;;;;;5081713;28;20449;-70
2022/08/04 19:50:40;;;;;;;4.07;3.60;;;30.90;54.40;;;;;;5082111;28;20881;-70
2022/08/04 19:53:07;;;;;;;5.63;3.90;;;30.90;54.70;;;;;;5081108;28;20798;-71
2022/08/04 19:55:35;;;;;;;3.83;3.53;;;30.90;54.80;;;;;;5079030;28;21010;-70
2022/08/04 19:58:03;;;;;;;4.70;3.43;;;30.90;55.10;;;;;;5076234;28;20899;-69
2022/08/04 20:00:30;;;;;;;4.33;3.53;;;30.90;55.70;;;;;;5075892;28;20442;-70
2022/08/04 20:02:58;;;;;;;4.47;4.07;;;30.80;56.00;;;;;;5075958;28;20458;-71
2022/08/04 20:05:26;;;;;;;4.30;3.77;;;30.70;56.30;;;;;;5075913;28;20839;-70
2022/08/04 20:07:53;;;;;;;4.43;4.03;;;30.60;56.20;;;;;;5075772;28;20454;-70
2022/08/04 20:10:20;;;;;;;5.43;3.73;;;30.50;54.90;;;;;;5075694;28;20454;-69
2022/08/04 20:12:46;;;;;;;3.70;3.40;;;30.50;54.00;;;;;;5075555;28;20933;-70
2022/08/04 20:15:13;;;;;;;3.80;3.50;;;30.50;55.10;;;;;;5075769;28;20908;-70
2022/08/04 20:17:40;;;;;;;3.73;3.47;;;30.50;55.30;;;;;;5075771;28;20439;-70
2022/08/04 20:20:08;;;;;;;7.03;2.90;;;30.50;55.20;;;;;;5075738;28;20454;-70
2022/08/04 20:22:36;;;;;;;3.70;3.40;;;30.50;55.70;;;;;;5075437;28;20470;-70
2022/08/04 20:25:03;;;;;;;3.50;3.30;;;30.40;56.00;;;;;;5075992;28;20477;-71
2022/08/04 20:27:30;;;;;;;3.37;3.13;;;30.40;56.10;;;;;;5075418;28;20449;-71
2022/08/04 20:29:57;;;;;;;5.53;3.30;;;30.30;56.10;;;;;;5075404;28;20791;-70
2022/08/04 20:32:26;;;;;;;3.30;3.10;;;30.30;56.00;;;;;;5076328;28;20481;-71
2022/08/04 20:34:54;;;;;;;3.10;2.90;;;30.20;56.20;;;;;;5086443;28;20473;-70
2022/08/04 20:37:22;;;;;;;3.53;3.33;;;30.20;56.30;;;;;;5085988;28;20450;-70
2022/08/04 20:39:54;;;;;;;3.87;3.50;;;30.10;56.40;;;;;;5077202;28;20831;-71
2022/08/04 20:42:21;;;;;;;3.30;3.10;;;30.10;55.50;;;;;;5075319;28;20473;-70
2022/08/04 20:44:48;;;;;;;6.93;3.43;;;30.10;54.50;;;;;;5075310;28;20810;-71
2022/08/04 20:47:15;;;;;;;4.07;3.83;;;30.10;54.20;;;;;;5075219;28;20461;-70
2022/08/04 20:49:42;;;;;;;4.00;3.67;;;30.10;55.30;;;;;;5075304;28;20461;-71
2022/08/04 20:52:09;;;;;;;4.13;3.70;;;30.00;55.20;;;;;;5075038;28;20482;-71
2022/08/04 20:54:38;;;;;;;3.40;3.10;;;30.00;55.10;;;;;;5075099;28;20457;-70
2022/08/04 20:57:06;;;;;;;5.40;4.10;;;30.00;55.30;;;;;;5075296;28;20458;-71
2022/08/04 20:59:34;;;;;;;4.37;3.97;;;30.00;55.40;;;;;;5074939;28;20456;-71
2022/08/04 21:02:01;;;;;;;4.43;4.03;;;30.10;56.10;;;;;;5075106;28;20569;-66
2022/08/04 21:04:37;;;;;;;4.33;4.03;;;30.10;56.40;;;;;;5074486;28;20485;-66
2022/08/04 21:07:05;;;;;;;4.53;4.10;;;30.10;56.60;;;;;;5074794;28;20513;-67
2022/08/04 21:09:33;;;;;;;4.90;4.60;;;30.00;57.30;;;;;;5074602;28;20809;-68
2022/08/04 21:12:00;;;;;;;5.17;3.60;;;30.00;57.00;;;;;;5073880;28;20470;-67
2022/08/04 21:14:28;;;;;;;5.77;3.70;;;29.90;57.20;;;;;;5074500;28;20446;-67
2022/08/04 21:16:56;;;;;;;4.60;4.20;;;29.90;57.70;;;;;;5074334;28;20541;-66
2022/08/04 21:19:23;;;;;;;6.50;4.73;;;29.70;56.80;;;;;;5074413;28;20457;-67
2022/08/04 21:21:50;;;;;;;4.80;4.30;;;29.60;57.10;;;;;;5074474;28;20592;-68
2022/08/04 21:24:16;;;;;;;4.40;4.00;;;29.60;57.40;;;;;;5074597;28;20474;-68
2022/08/04 21:26:43;;;;;;;8.20;4.90;;;29.50;57.60;;;;;;5092343;28;20475;-67
2022/08/04 21:29:11;;;;;;;5.13;4.73;;;29.50;57.80;;;;;;5088848;28;20456;-67
2022/08/04 21:31:39;;;;;;;5.00;4.50;;;29.40;58.10;;;;;;5093664;28;20476;-68
2022/08/04 21:34:05;;;;;;;5.27;4.77;;;29.40;58.30;;;;;;5080150;28;20446;-68
2022/08/04 21:36:32;;;;;;;4.93;4.53;;;29.40;58.50;;;;;;5074499;28;20808;-67
2022/08/04 21:38:59;;;;;;;5.40;4.90;;;29.30;58.70;;;;;;5075182;28;20454;-67
2022/08/04 21:41:26;;;;;;;4.90;4.50;;;29.30;59.00;;;;;;5074348;28;20474;-67
2022/08/04 21:43:52;;;;;;;5.37;4.43;;;29.30;59.60;;;;;;5074341;28;20454;-67
2022/08/04 21:46:19;;;;;;;4.90;4.60;;;29.30;60.10;;;;;;5074563;28;20559;-67
2022/08/04 21:48:47;;;;;;;4.97;4.50;;;29.20;60.40;;;;;;5075376;28;20446;-67
2022/08/04 21:51:18;;;;;;;5.10;4.70;;;29.20;60.10;;;;;;5074629;28;20501;-67
2022/08/04 21:53:45;;;;;;;4.73;4.33;;;29.10;60.60;;;;;;5073950;28;20453;-67
2022/08/04 21:56:13;;;;;;;7.53;5.30;;;29.10;60.80;;;;;;5073857;28;20454;-67
2022/08/04 21:58:40;;;;;;;5.30;4.80;;;29.00;61.10;;;;;;5073894;28;20453;-67
